Terminal Aerodrome Forecast
Issued by NWS

Current Version | Previous Version | Graphics & Text | Print | Product List | Glossary Off
Versions: 1 2 3 4 5 6 7 8 9 10 11 12 13 14 15 16 17 18 19 20 21 22 23 24

000
FTUS41 KPBZ 020100 AAA
TAFHLG
TAF AMD
KHLG 020120Z 0201/0224 15010KT 6SM -RA BR SCT010 OVC025
      TEMPO 0202/0204 3SM -RA BR BKN010
     FM020400 16012KT 1SM -RA BR OVC008
     FM020900 22010KT 4SM -DZ BR OVC012
     FM021300 29015G30KT 1SM -SHSN OVC008
     FM021800 30015G25KT 6SM -SHSN OVC018=

USA.gov is the U.S. government's official web portal to all federal, state and local government web resources and services.